createdAt,value
2022-11-30T00:01:15.985Z,77.44
2022-11-30T00:06:23.346Z,77.35
2022-11-30T00:11:28.640Z,77.58
2022-11-30T00:16:32.032Z,77.37
2022-11-30T00:21:34.954Z,77.42
2022-11-30T00:26:38.068Z,77.47
2022-11-30T00:31:41.012Z,77.54
2022-11-30T00:36:43.953Z,77.56
2022-11-30T00:41:46.900Z,77.51
2022-11-30T00:46:49.713Z,77.31
2022-11-30T00:51:53.050Z,77.59
2022-11-30T00:56:56.261Z,77.48
2022-11-30T01:01:59.382Z,77.21
2022-11-30T01:07:02.226Z,77.58
2022-11-30T01:12:05.616Z,77.78
2022-11-30T01:17:08.523Z,77.79
2022-11-30T01:22:11.874Z,77.68
2022-11-30T01:27:14.709Z,77.52
2022-11-30T01:32:17.818Z,77.69
2022-11-30T01:37:20.732Z,77.42
2022-11-30T01:42:23.600Z,77.43
2022-11-30T01:47:39.509Z,77.49
2022-11-30T01:52:49.056Z,77.58
2022-11-30T01:58:20.222Z,77.68
2022-11-30T02:03:57.061Z,77.48
2022-11-30T02:09:00.085Z,77.55
2022-11-30T02:14:58.698Z,77.51
2022-11-30T02:20:38.388Z,77.52
2022-11-30T02:26:12.198Z,77.44
2022-11-30T02:31:20.466Z,77.56
2022-11-30T02:36:23.382Z,77.73
2022-11-30T02:41:26.192Z,77.77
2022-11-30T02:46:44.153Z,77.73
2022-11-30T02:51:47.088Z,77.63
2022-11-30T02:56:50.013Z,77.77
2022-11-30T03:01:53.423Z,77.83
2022-11-30T03:07:16.456Z,77.37
2022-11-30T03:12:19.295Z,77.32
2022-11-30T03:17:23.670Z,76.97
2022-11-30T03:22:26.926Z,77.43
2022-11-30T03:27:30.037Z,77.44
2022-11-30T03:32:33.009Z,77.17
2022-11-30T03:37:36.210Z,77.07
2022-11-30T03:42:39.116Z,76.94
2022-11-30T03:47:43.162Z,77.11
2022-11-30T03:52:46.434Z,77.14
2022-11-30T03:57:53.211Z,76.93
2022-11-30T04:02:56.168Z,76.77
2022-11-30T04:08:00.267Z,76.88
2022-11-30T04:13:03.405Z,77.11
2022-11-30T04:18:06.439Z,77.16
2022-11-30T04:23:12.631Z,77.12
2022-11-30T04:28:16.493Z,76.78
2022-11-30T04:33:19.361Z,76.76
2022-11-30T04:38:23.695Z,76.85
2022-11-30T04:43:26.937Z,77.23
2022-11-30T04:48:29.887Z,77.19
2022-11-30T04:53:34.930Z,77.32
2022-11-30T04:58:39.170Z,77.21
2022-11-30T05:03:43.122Z,77.24
2022-11-30T05:08:47.174Z,77.36
2022-11-30T05:13:50.038Z,77.64
2022-11-30T05:18:52.859Z,77.31
2022-11-30T05:23:55.732Z,77.72
2022-11-30T05:28:58.616Z,77.69
2022-11-30T05:34:01.560Z,77.70
2022-11-30T05:39:04.766Z,77.65
2022-11-30T05:44:08.855Z,77.55
2022-11-30T05:49:13.365Z,77.69
2022-11-30T05:54:16.264Z,77.70
2022-11-30T05:59:19.151Z,77.80
2022-11-30T06:04:22.855Z,77.80
2022-11-30T06:09:26.240Z,77.84
2022-11-30T06:14:29.054Z,78.07
2022-11-30T06:19:31.895Z,77.97
2022-11-30T06:24:34.724Z,78.04
2022-11-30T06:29:37.539Z,78.34
2022-11-30T06:34:40.894Z,78.42
2022-11-30T06:40:05.384Z,78.34
2022-11-30T06:45:07.556Z,78.43
2022-11-30T06:50:10.473Z,78.45
2022-11-30T06:56:15.697Z,78.50
2022-11-30T07:01:18.748Z,78.73
2022-11-30T07:06:21.668Z,78.80
2022-11-30T07:11:32.257Z,78.38
2022-11-30T07:16:37.133Z,78.37
2022-11-30T07:21:40.053Z,78.50
2022-11-30T07:26:42.818Z,78.56
2022-11-30T07:31:52.496Z,78.27
2022-11-30T07:36:55.471Z,78.39
2022-11-30T07:41:58.342Z,77.98
2022-11-30T07:47:01.594Z,78.19
2022-11-30T07:52:04.978Z,78.36
2022-11-30T07:57:07.845Z,78.18
2022-11-30T08:02:11.146Z,78.21
2022-11-30T08:07:14.843Z,78.00
2022-11-30T08:12:17.890Z,78.20
2022-11-30T08:17:20.711Z,78.26
2022-11-30T08:22:23.881Z,78.19
2022-11-30T08:27:26.800Z,78.09
2022-11-30T08:32:29.689Z,78.15
2022-11-30T08:37:32.653Z,78.27
2022-11-30T08:42:35.608Z,78.18
2022-11-30T08:47:38.530Z,77.92
2022-11-30T08:52:41.526Z,78.00
2022-11-30T08:57:44.353Z,78.09
2022-11-30T09:02:47.352Z,78.23
2022-11-30T09:07:50.393Z,77.98
2022-11-30T09:12:53.779Z,78.21
2022-11-30T09:17:56.676Z,78.30
2022-11-30T09:22:59.877Z,78.21
2022-11-30T09:28:04.254Z,78.41
2022-11-30T09:33:08.882Z,78.42
2022-11-30T09:38:11.779Z,78.44
2022-11-30T09:44:09.836Z,78.39
2022-11-30T09:49:22.484Z,78.33
2022-11-30T09:54:35.676Z,78.41
2022-11-30T09:59:49.014Z,78.70
2022-11-30T10:04:51.997Z,78.65
2022-11-30T10:15:54.507Z,78.36
2022-11-30T10:21:17.151Z,78.33
2022-11-30T10:26:36.276Z,78.63
2022-11-30T10:31:41.569Z,78.53
2022-11-30T10:36:51.749Z,78.41
2022-11-30T10:42:02.672Z,78.26
2022-11-30T10:47:20.385Z,78.44
2022-11-30T10:52:35.302Z,78.57
2022-11-30T10:57:38.575Z,78.37
2022-11-30T11:02:47.375Z,78.53
2022-11-30T11:08:05.767Z,78.72
2022-11-30T11:13:40.164Z,78.92
2022-11-30T11:18:57.209Z,79.17
2022-11-30T11:24:00.638Z,79.22
2022-11-30T11:29:03.602Z,79.15
2022-11-30T11:34:23.839Z,79.29
2022-11-30T11:39:27.475Z,79.26
2022-11-30T11:44:31.940Z,79.23
2022-11-30T11:49:36.973Z,79.47
2022-11-30T11:54:55.402Z,79.50
2022-11-30T12:00:12.530Z,79.48
2022-11-30T12:05:57.206Z,79.65
2022-11-30T12:11:14.466Z,79.58
2022-11-30T12:17:12.853Z,79.32
2022-11-30T12:22:27.121Z,79.48
2022-11-30T12:28:07.955Z,79.62
2022-11-30T12:34:00.961Z,79.48
2022-11-30T12:39:29.946Z,79.49
2022-11-30T12:44:58.138Z,79.61
2022-11-30T12:50:40.978Z,79.33
2022-11-30T12:56:16.464Z,79.38
2022-11-30T13:02:03.784Z,79.48
2022-11-30T13:07:50.719Z,79.65
2022-11-30T13:12:54.510Z,79.46
2022-11-30T13:17:57.367Z,79.59
2022-11-30T13:23:11.202Z,79.53
2022-11-30T13:28:41.741Z,79.30
2022-11-30T13:33:49.700Z,79.42
2022-11-30T13:39:14.588Z,79.50
2022-11-30T13:44:38.042Z,79.26
2022-11-30T13:49:41.225Z,79.09
2022-11-30T13:54:50.638Z,78.94
2022-11-30T13:59:55.527Z,79.20
2022-11-30T14:05:17.652Z,79.11
2022-11-30T14:10:32.858Z,79.22
2022-11-30T14:15:38.870Z,79.07
2022-11-30T14:20:53.838Z,79.07
2022-11-30T14:26:05.120Z,79.18
2022-11-30T14:31:27.302Z,78.85
2022-11-30T14:36:38.230Z,78.96
2022-11-30T14:41:41.804Z,78.98
2022-11-30T14:46:45.274Z,79.10
2022-11-30T14:52:07.709Z,79.07
2022-11-30T14:58:03.977Z,78.99
2022-11-30T15:03:25.256Z,79.05
2022-11-30T15:08:44.637Z,79.08
2022-11-30T15:13:57.401Z,78.69
2022-11-30T15:19:23.552Z,78.43
2022-11-30T15:24:27.016Z,78.68
2022-11-30T15:29:36.757Z,78.93
2022-11-30T15:35:07.648Z,78.78
2022-11-30T15:40:15.737Z,78.85
2022-11-30T15:45:32.660Z,78.88
2022-11-30T15:50:39.465Z,78.79
2022-11-30T15:55:46.590Z,78.80
2022-11-30T16:01:26.010Z,78.82
2022-11-30T16:06:45.578Z,78.98
2022-11-30T16:11:56.841Z,79.00
2022-11-30T16:17:02.928Z,78.70
2022-11-30T16:22:13.047Z,78.83
2022-11-30T16:27:18.265Z,78.87
2022-11-30T16:32:23.369Z,79.16
2022-11-30T16:37:26.175Z,78.98
2022-11-30T16:42:29.208Z,78.98
2022-11-30T16:47:32.623Z,79.14
2022-11-30T16:52:35.573Z,79.21
2022-11-30T16:57:39.677Z,79.13
2022-11-30T17:03:08.368Z,78.93
2022-11-30T17:08:12.372Z,78.84
2022-11-30T17:13:16.066Z,79.02
2022-11-30T17:18:20.598Z,78.75
2022-11-30T17:23:23.493Z,78.67
2022-11-30T17:28:26.264Z,78.66
2022-11-30T17:33:33.682Z,78.75
2022-11-30T17:38:37.693Z,78.50
2022-11-30T17:43:40.970Z,78.51
2022-11-30T17:48:44.716Z,78.79
2022-11-30T17:53:49.603Z,78.72
2022-11-30T17:58:52.868Z,78.76
2022-11-30T18:03:55.868Z,78.59
2022-11-30T18:08:58.740Z,78.45
2022-11-30T18:14:03.082Z,78.54
2022-11-30T18:19:12.032Z,78.30
2022-11-30T18:24:14.859Z,78.18
2022-11-30T18:29:17.724Z,78.27
2022-11-30T18:34:20.894Z,78.35
2022-11-30T18:39:23.701Z,78.15
2022-11-30T18:44:26.500Z,77.98
2022-11-30T18:49:29.326Z,77.95
2022-11-30T18:54:32.401Z,78.02
2022-11-30T18:59:35.251Z,77.99
2022-11-30T19:04:41.078Z,77.92
2022-11-30T19:09:44.166Z,77.91
2022-11-30T19:14:48.957Z,78.05
2022-11-30T19:19:52.094Z,77.90
2022-11-30T19:24:54.978Z,77.77
2022-11-30T19:29:57.945Z,77.89
2022-11-30T19:35:00.876Z,78.02
2022-11-30T19:40:05.768Z,78.04
2022-11-30T19:45:09.478Z,77.88
2022-11-30T19:50:12.349Z,77.79
2022-11-30T19:55:17.424Z,77.96
2022-11-30T20:00:21.705Z,77.88
2022-11-30T20:05:24.582Z,77.86
2022-11-30T20:10:32.013Z,77.71
2022-11-30T20:15:39.785Z,77.86
2022-11-30T20:20:43.741Z,77.91
2022-11-30T20:25:46.634Z,77.88
2022-11-30T20:30:49.576Z,77.99
2022-11-30T20:35:52.688Z,78.10
2022-11-30T20:40:56.078Z,78.51
2022-11-30T20:46:00.136Z,78.39
2022-11-30T20:51:30.072Z,78.21
2022-11-30T20:56:36.573Z,78.27
2022-11-30T21:01:44.277Z,78.41
2022-11-30T21:06:48.523Z,78.53
2022-11-30T21:11:51.364Z,78.59
2022-11-30T21:16:54.814Z,78.40
2022-11-30T21:21:59.362Z,78.68
2022-11-30T21:27:02.427Z,78.77
2022-11-30T21:32:05.364Z,78.80
2022-11-30T21:37:08.184Z,78.66
2022-11-30T21:42:10.958Z,78.94
2022-11-30T21:47:14.799Z,78.97
2022-11-30T21:52:19.593Z,78.93
2022-11-30T21:57:22.629Z,78.89
2022-11-30T22:02:26.602Z,79.11
2022-11-30T22:07:31.905Z,79.25
2022-11-30T22:12:35.019Z,79.23
2022-11-30T22:17:37.949Z,79.05
2022-11-30T22:22:40.800Z,79.28
2022-11-30T22:27:43.596Z,79.25
2022-11-30T22:32:46.448Z,79.35
2022-11-30T22:37:49.990Z,79.45
2022-11-30T22:42:53.220Z,79.46
2022-11-30T22:47:57.703Z,79.55
2022-11-30T22:53:03.266Z,79.67
2022-11-30T22:58:06.698Z,79.60
2022-11-30T23:03:09.609Z,79.98
2022-11-30T23:08:12.503Z,79.96
2022-11-30T23:13:15.344Z,80.08
2022-11-30T23:18:18.518Z,80.22
2022-11-30T23:23:22.971Z,80.39
2022-11-30T23:28:26.206Z,80.29
2022-11-30T23:33:30.527Z,80.29
2022-11-30T23:38:34.245Z,80.17
2022-11-30T23:43:37.329Z,80.40
2022-11-30T23:48:41.415Z,80.21
2022-11-30T23:53:44.917Z,80.47
2022-11-30T23:58:48.153Z,80.66
